Time;durP1;ratioP1;P1;durP2;ratioP2;P2;SDS_P1;SDS_P2;PMS_P1;PMS_P2;Temp;Humidity;BMP_temperature;BMP_pressure;BME280_temperature;BME280_humidity;BME280_pressure;Samples;Min_cycle;Max_cycle;Signal;HPM_P1;HPM_P2
2023/07/22 00:01:22;;;;;;;25.88;17.35;;;;;;;;;;5057012;28;20032;-75
2023/07/22 00:03:48;;;;;;;16.88;10.65;;;;;;;;;;5045314;28;20029;-74
2023/07/22 00:06:15;;;;;;;13.90;9.43;;;;;;;;;;5044277;28;20470;-75
2023/07/22 00:08:41;;;;;;;15.57;8.93;;;;;;;;;;5043995;28;20037;-75
2023/07/22 00:11:08;;;;;;;15.00;8.93;;;;;;;;;;5043887;28;20025;-75
2023/07/22 00:13:34;;;;;;;13.20;7.72;;;;;;;;;;5037858;28;20499;-76
2023/07/22 00:16:01;;;;;;;10.77;7.75;;;;;;;;;;5058571;28;20037;-76
2023/07/22 00:18:27;;;;;;;13.25;7.70;;;;;;;;;;5050038;28;20074;-75
2023/07/22 00:20:54;;;;;;;12.38;7.38;;;;;;;;;;5048551;28;20353;-76
2023/07/22 00:23:20;;;;;;;14.90;8.40;;;;;;;;;;5049134;28;20647;-75
2023/07/22 00:25:47;;;;;;;13.77;7.35;;;;;;;;;;5043473;28;20021;-75
2023/07/22 00:28:13;;;;;;;12.05;7.45;;;;;;;;;;5058050;28;20557;-75
2023/07/22 00:30:39;;;;;;;17.60;8.52;;;;;;;;;;5044388;28;20411;-75
2023/07/22 00:33:05;;;;;;;12.65;7.10;;;;;;;;;;5046968;28;20483;-75
2023/07/22 00:35:31;;;;;;;15.63;7.82;;;;;;;;;;5044463;28;20029;-75
2023/07/22 00:37:58;;;;;;;13.68;7.63;;;;;;;;;;5043602;28;20083;-76
2023/07/22 00:40:24;;;;;;;14.63;7.95;;;;;;;;;;5055479;28;20033;-76
2023/07/22 00:42:50;;;;;;;12.50;8.10;;;;;;;;;;5044346;28;20055;-74
2023/07/22 00:45:16;;;;;;;14.27;7.47;;;;;;;;;;5044204;28;20075;-75
2023/07/22 00:47:42;;;;;;;12.23;7.22;;;;;;;;;;5045948;28;20021;-76
2023/07/22 00:50:09;;;;;;;13.27;6.95;;;;;;;;;;5044282;28;20027;-75
2023/07/22 00:52:35;;;;;;;13.23;7.55;;;;;;;;;;5047940;28;20083;-76
2023/07/22 00:55:01;;;;;;;13.05;7.50;;;;;;;;;;5046340;28;20025;-76
2023/07/22 00:57:28;;;;;;;12.60;7.15;;;;;;;;;;5045186;28;20396;-75
2023/07/22 00:59:54;;;;;;;12.00;7.35;;;;;;;;;;5047353;28;20028;-75
2023/07/22 01:02:21;;;;;;;14.25;7.68;;;;;;;;;;5044394;28;20021;-75
2023/07/22 01:04:47;;;;;;;11.40;6.55;;;;;;;;;;5057016;28;20132;-75
2023/07/22 01:07:13;;;;;;;9.63;6.50;;;;;;;;;;5060883;28;20025;-75
2023/07/22 01:09:40;;;;;;;15.57;7.07;;;;;;;;;;5040230;28;20043;-75
2023/07/22 01:12:08;;;;;;;12.10;7.03;;;;;;;;;;5036616;28;20598;-75
2023/07/22 01:14:34;;;;;;;8.77;5.85;;;;;;;;;;5045390;28;20029;-75
2023/07/22 01:17:04;;;;;;;9.35;6.15;;;;;;;;;;5062009;28;20028;-76
2023/07/22 01:19:31;;;;;;;10.13;6.07;;;;;;;;;;5046145;28;20078;-75
2023/07/22 01:22:00;;;;;;;10.57;6.38;;;;;;;;;;5046884;28;20109;-75
2023/07/22 01:24:27;;;;;;;10.10;6.60;;;;;;;;;;5039615;28;20041;-75
2023/07/22 01:26:53;;;;;;;9.68;5.72;;;;;;;;;;5056548;28;20029;-75
2023/07/22 01:29:19;;;;;;;11.10;6.90;;;;;;;;;;5043801;28;20048;-75
2023/07/22 01:31:47;;;;;;;10.35;5.88;;;;;;;;;;5033836;28;20384;-75
2023/07/22 01:34:14;;;;;;;11.35;6.05;;;;;;;;;;5046415;28;20377;-75
2023/07/22 01:36:40;;;;;;;9.80;5.93;;;;;;;;;;5042924;28;20029;-75
2023/07/22 01:39:06;;;;;;;11.77;5.95;;;;;;;;;;5044217;28;20041;-75
2023/07/22 01:41:32;;;;;;;12.10;6.15;;;;;;;;;;5045586;28;20091;-76
2023/07/22 01:43:59;;;;;;;10.10;6.35;;;;;;;;;;5036483;28;20017;-75
2023/07/22 01:46:25;;;;;;;9.85;5.93;;;;;;;;;;5043197;28;20032;-75
2023/07/22 01:48:52;;;;;;;9.60;5.68;;;;;;;;;;5043894;28;20021;-75
2023/07/22 01:51:18;;;;;;;10.35;6.07;;;;;;;;;;5042127;28;20797;-74
2023/07/22 01:53:44;;;;;;;9.90;5.25;;;;;;;;;;5047777;28;20029;-74
2023/07/22 01:56:10;;;;;;;10.00;5.55;;;;;;;;;;5043667;28;20032;-74
2023/07/22 01:58:36;;;;;;;11.88;5.53;;;;;;;;;;5048919;28;20039;-75
2023/07/22 02:01:02;;;;;;;9.85;5.03;;;;;;;;;;5061606;28;20570;-75
2023/07/22 02:03:28;;;;;;;10.63;5.20;;;;;;;;;;5047667;28;20473;-74
2023/07/22 02:06:01;;;;;;;11.30;5.90;;;;;;;;;;5046077;28;20448;-73
2023/07/22 02:08:27;;;;;;;11.20;5.35;;;;;;;;;;5045856;28;20029;-74
2023/07/22 02:10:53;;;;;;;9.27;5.15;;;;;;;;;;5060901;28;20040;-74
2023/07/22 02:13:19;;;;;;;7.95;4.93;;;;;;;;;;5046681;28;20029;-74
2023/07/22 02:15:46;;;;;;;9.00;5.30;;;;;;;;;;5037272;28;20124;-74
2023/07/22 02:18:12;;;;;;;7.85;4.82;;;;;;;;;;5044776;28;20029;-75
2023/07/22 02:20:38;;;;;;;8.95;5.07;;;;;;;;;;5062847;28;20025;-76
2023/07/22 02:23:04;;;;;;;11.88;6.05;;;;;;;;;;5051216;28;20071;-75
2023/07/22 02:25:30;;;;;;;8.52;5.45;;;;;;;;;;5046648;28;20025;-73
2023/07/22 02:27:57;;;;;;;7.90;4.72;;;;;;;;;;5046167;28;20052;-74
2023/07/22 02:30:23;;;;;;;10.15;5.78;;;;;;;;;;5045774;28;20037;-72
2023/07/22 02:32:49;;;;;;;8.95;4.90;;;;;;;;;;5042867;28;20037;-69
2023/07/22 02:35:16;;;;;;;14.15;5.65;;;;;;;;;;5041398;28;20033;-71
2023/07/22 02:37:42;;;;;;;9.88;5.60;;;;;;;;;;5044339;28;20084;-68
2023/07/22 02:40:11;;;;;;;7.13;4.13;;;;;;;;;;5041627;28;20841;-71
2023/07/22 02:42:37;;;;;;;7.70;4.90;;;;;;;;;;5042330;28;20144;-73
2023/07/22 02:45:04;;;;;;;11.48;5.43;;;;;;;;;;5038686;28;20835;-73
2023/07/22 02:47:30;;;;;;;11.73;5.70;;;;;;;;;;5044898;28;20021;-71
2023/07/22 02:49:56;;;;;;;30.48;5.88;;;;;;;;;;5042605;28;20524;-72
2023/07/22 02:52:23;;;;;;;7.75;4.97;;;;;;;;;;5040316;28;20025;-73
2023/07/22 02:55:07;;;;;;;7.95;4.90;;;;;;;;;;5056127;28;20024;-73
2023/07/22 02:57:34;;;;;;;8.13;4.90;;;;;;;;;;5042235;28;20065;-73
2023/07/22 03:00:00;;;;;;;8.25;4.85;;;;;;;;;;5041139;28;20086;-73
2023/07/22 03:02:26;;;;;;;8.40;5.18;;;;;;;;;;5045003;28;20116;-75
2023/07/22 03:04:52;;;;;;;6.53;4.63;;;;;;;;;;5041297;28;20021;-75
2023/07/22 03:07:20;;;;;;;8.02;4.95;;;;;;;;;;5043805;28;20025;-75
2023/07/22 03:09:46;;;;;;;7.25;4.57;;;;;;;;;;5033734;28;20140;-75
2023/07/22 03:12:13;;;;;;;9.35;5.40;;;;;;;;;;5037838;28;20052;-75
2023/07/22 03:14:39;;;;;;;8.40;4.80;;;;;;;;;;5043259;28;20425;-75
2023/07/22 03:17:05;;;;;;;9.57;4.80;;;;;;;;;;5039993;28;20039;-73
2023/07/22 03:19:31;;;;;;;8.52;5.22;;;;;;;;;;5042927;28;20033;-74
2023/07/22 03:21:57;;;;;;;10.00;5.32;;;;;;;;;;5058900;28;20064;-73
2023/07/22 03:24:25;;;;;;;9.32;4.95;;;;;;;;;;5041641;28;20033;-73
2023/07/22 03:26:51;;;;;;;9.82;5.13;;;;;;;;;;5044490;28;20028;-73
2023/07/22 03:29:17;;;;;;;9.55;5.95;;;;;;;;;;5045885;28;20056;-74
2023/07/22 03:31:43;;;;;;;9.23;5.30;;;;;;;;;;5044024;28;20045;-74
2023/07/22 03:34:09;;;;;;;9.35;5.70;;;;;;;;;;5056118;28;20029;-75
2023/07/22 03:36:35;;;;;;;12.55;5.78;;;;;;;;;;5039639;28;20028;-74
2023/07/22 03:39:02;;;;;;;13.00;6.00;;;;;;;;;;5058381;28;20054;-73
2023/07/22 03:41:28;;;;;;;9.85;5.70;;;;;;;;;;5057789;28;20035;-73
2023/07/22 03:43:55;;;;;;;12.18;6.18;;;;;;;;;;5045378;28;20493;-73
2023/07/22 03:46:21;;;;;;;9.98;5.55;;;;;;;;;;5043275;28;20419;-74
2023/07/22 03:48:47;;;;;;;9.52;5.38;;;;;;;;;;5056880;28;20021;-73
2023/07/22 03:51:13;;;;;;;10.25;5.30;;;;;;;;;;5047947;28;20029;-73
2023/07/22 03:53:39;;;;;;;12.30;6.65;;;;;;;;;;5043918;28;20116;-72
2023/07/22 03:56:05;;;;;;;10.68;5.47;;;;;;;;;;5041625;28;20091;-73
2023/07/22 03:58:31;;;;;;;11.15;6.05;;;;;;;;;;5046819;28;20044;-72
2023/07/22 04:00:57;;;;;;;13.30;6.93;;;;;;;;;;5050020;28;20021;-72
2023/07/22 04:03:23;;;;;;;12.50;6.88;;;;;;;;;;5049152;28;20078;-73
2023/07/22 04:05:56;;;;;;;15.38;7.07;;;;;;;;;;5049528;28;20024;-74
2023/07/22 04:08:22;;;;;;;11.02;6.18;;;;;;;;;;5048515;28;20484;-69
2023/07/22 04:10:58;;;;;;;12.50;6.25;;;;;;;;;;5047632;28;20484;-70
2023/07/22 04:13:25;;;;;;;10.63;6.55;;;;;;;;;;5046158;28;20025;-69
2023/07/22 04:15:51;;;;;;;11.07;6.05;;;;;;;;;;5048227;28;20037;-70
2023/07/22 04:18:18;;;;;;;12.23;6.53;;;;;;;;;;5049469;28;20031;-71
2023/07/22 04:20:44;;;;;;;12.40;6.53;;;;;;;;;;5049198;28;20060;-69
2023/07/22 04:23:11;;;;;;;10.90;6.15;;;;;;;;;;5046420;28;20030;-70
2023/07/22 04:25:44;;;;;;;10.85;6.32;;;;;;;;;;5065225;28;20124;-70
2023/07/22 04:28:11;;;;;;;14.55;6.97;;;;;;;;;;5046781;28;20521;-71
2023/07/22 04:30:37;;;;;;;10.65;5.72;;;;;;;;;;5049587;28;20055;-70
2023/07/22 04:33:05;;;;;;;11.95;6.40;;;;;;;;;;5047881;28;20067;-70
2023/07/22 04:35:34;;;;;;;9.90;5.47;;;;;;;;;;5043788;28;20807;-70
2023/07/22 04:38:03;;;;;;;10.05;6.03;;;;;;;;;;5044560;28;20029;-70
2023/07/22 04:40:30;;;;;;;14.52;6.10;;;;;;;;;;5048885;28;20036;-69
2023/07/22 04:42:56;;;;;;;11.10;5.78;;;;;;;;;;5063767;28;20029;-70
2023/07/22 04:45:26;;;;;;;10.02;5.57;;;;;;;;;;5048080;28;20522;-71
2023/07/22 04:47:52;;;;;;;9.80;5.53;;;;;;;;;;5050693;28;20071;-70
2023/07/22 04:50:19;;;;;;;8.90;5.50;;;;;;;;;;5051648;28;20358;-70
2023/07/22 04:52:46;;;;;;;10.07;5.95;;;;;;;;;;5049446;28;20024;-70
2023/07/22 04:55:12;;;;;;;10.20;5.75;;;;;;;;;;5066412;28;20400;-70
2023/07/22 04:57:40;;;;;;;12.88;5.93;;;;;;;;;;5043801;28;20032;-71
2023/07/22 05:00:09;;;;;;;7.38;5.07;;;;;;;;;;5065130;28;20021;-72
2023/07/22 05:02:35;;;;;;;8.70;5.60;;;;;;;;;;5046707;28;20082;-70
2023/07/22 05:05:02;;;;;;;9.38;5.53;;;;;;;;;;5045148;28;20342;-70
2023/07/22 05:07:28;;;;;;;9.52;4.72;;;;;;;;;;5048329;28;20025;-71
2023/07/22 05:09:54;;;;;;;8.43;4.88;;;;;;;;;;5053119;28;20040;-72
2023/07/22 05:12:20;;;;;;;12.93;5.72;;;;;;;;;;5064604;28;20025;-71
2023/07/22 05:14:46;;;;;;;9.90;5.07;;;;;;;;;;5049656;28;20029;-72
2023/07/22 05:17:12;;;;;;;8.48;5.13;;;;;;;;;;5045344;28;20110;-71
2023/07/22 05:19:38;;;;;;;7.47;4.60;;;;;;;;;;5048388;28;20075;-71
2023/07/22 05:22:05;;;;;;;7.10;5.07;;;;;;;;;;5049664;28;20457;-70
2023/07/22 05:24:31;;;;;;;8.38;4.72;;;;;;;;;;5047093;28;20402;-71
2023/07/22 05:26:57;;;;;;;7.68;4.70;;;;;;;;;;5047934;28;20090;-70
2023/07/22 05:29:24;;;;;;;10.80;4.85;;;;;;;;;;5059845;28;20401;-71
2023/07/22 05:31:50;;;;;;;7.20;4.50;;;;;;;;;;5042460;28;20033;-71
2023/07/22 05:34:16;;;;;;;8.90;5.65;;;;;;;;;;5044731;28;20393;-71
2023/07/22 05:36:42;;;;;;;8.48;4.70;;;;;;;;;;5048255;28;20522;-71
2023/07/22 05:39:08;;;;;;;7.30;4.90;;;;;;;;;;5044866;28;20127;-71
2023/07/22 05:41:34;;;;;;;8.70;4.95;;;;;;;;;;5043657;28;20532;-71
2023/07/22 05:44:00;;;;;;;7.47;4.72;;;;;;;;;;5046821;28;20163;-70
2023/07/22 05:46:26;;;;;;;10.85;5.13;;;;;;;;;;5047253;28;20060;-71
2023/07/22 05:48:53;;;;;;;9.93;5.50;;;;;;;;;;5045922;28;20108;-71
2023/07/22 05:51:19;;;;;;;8.27;5.18;;;;;;;;;;5046361;28;20025;-71
2023/07/22 05:53:45;;;;;;;10.70;5.35;;;;;;;;;;5042039;28;20116;-71
2023/07/22 05:56:11;;;;;;;8.80;5.20;;;;;;;;;;5046392;28;20289;-72
2023/07/22 05:58:37;;;;;;;8.40;5.15;;;;;;;;;;5045639;28;20037;-70
2023/07/22 06:01:03;;;;;;;10.75;5.55;;;;;;;;;;5041026;28;21553;-70
2023/07/22 06:03:29;;;;;;;7.28;4.88;;;;;;;;;;5049030;28;20036;-72
2023/07/22 06:05:55;;;;;;;8.30;5.45;;;;;;;;;;5042653;28;20040;-71
2023/07/22 06:08:21;;;;;;;8.38;5.90;;;;;;;;;;5045386;28;20029;-71
2023/07/22 06:10:48;;;;;;;9.80;5.63;;;;;;;;;;5044733;28;20040;-71
2023/07/22 06:13:14;;;;;;;9.13;5.40;;;;;;;;;;5045110;28;20106;-71
2023/07/22 06:15:40;;;;;;;10.23;4.72;;;;;;;;;;5045852;28;20035;-71
2023/07/22 06:18:08;;;;;;;8.75;5.63;;;;;;;;;;5044651;28;20075;-71
2023/07/22 06:20:35;;;;;;;12.05;5.05;;;;;;;;;;5062171;28;20384;-71
2023/07/22 06:23:02;;;;;;;11.73;5.57;;;;;;;;;;5060869;28;20562;-71
2023/07/22 06:25:28;;;;;;;9.23;5.07;;;;;;;;;;5059032;28;20559;-71
2023/07/22 06:27:54;;;;;;;8.80;5.28;;;;;;;;;;5047202;28;20426;-71
2023/07/22 06:30:20;;;;;;;7.78;5.45;;;;;;;;;;5046841;28;20494;-70
2023/07/22 06:32:46;;;;;;;8.98;5.18;;;;;;;;;;5044162;28;20083;-71
2023/07/22 06:35:22;;;;;;;8.15;5.28;;;;;;;;;;5082449;27;20463;-72
2023/07/22 06:37:48;;;;;;;8.35;5.25;;;;;;;;;;5076132;28;20032;-70
2023/07/22 06:40:14;;;;;;;9.77;5.65;;;;;;;;;;5074630;28;20027;-70
2023/07/22 06:42:40;;;;;;;8.50;5.13;;;;;;;;;;5079769;28;20529;-71
2023/07/22 06:45:07;;;;;;;7.72;4.90;;;;;;;;;;5076568;28;20120;-70
2023/07/22 06:47:33;;;;;;;10.13;4.75;;;;;;;;;;5077381;28;20032;-71
2023/07/22 06:49:59;;;;;;;7.72;5.10;;;;;;;;;;5068317;28;20032;-68
2023/07/22 06:52:25;;;;;;;9.07;4.85;;;;;;;;;;5067825;28;20685;-68
2023/07/22 06:54:51;;;;;;;9.77;5.28;;;;;;;;;;5078029;28;20029;-67
2023/07/22 06:57:17;;;;;;;6.68;5.07;;;;;;;;;;5067908;28;20075;-67
2023/07/22 06:59:44;;;;;;;6.88;4.43;;;;;;;;;;5074341;28;20031;-68
2023/07/22 07:02:10;;;;;;;7.63;5.10;;;;;;;;;;5069014;28;20029;-68
2023/07/22 07:04:36;;;;;;;7.10;4.10;;;;;;;;;;5072434;28;20040;-68
2023/07/22 07:07:02;;;;;;;7.80;4.05;;;;;;;;;;5077655;28;20120;-69
2023/07/22 07:09:28;;;;;;;6.80;4.07;;;;;;;;;;5068952;28;20617;-68
2023/07/22 07:11:57;;;;;;;6.18;3.95;;;;;;;;;;5071844;28;20546;-68
2023/07/22 07:14:24;;;;;;;6.65;4.20;;;;;;;;;;5074173;28;20035;-68
2023/07/22 07:16:50;;;;;;;6.75;3.70;;;;;;;;;;5066395;28;20031;-68
2023/07/22 07:19:17;;;;;;;4.10;3.00;;;;;;;;;;5069839;28;20378;-68
2023/07/22 07:21:43;;;;;;;6.22;3.60;;;;;;;;;;5077903;28;20538;-68
2023/07/22 07:24:09;;;;;;;3.97;2.83;;;;;;;;;;5071560;28;20036;-68
2023/07/22 07:26:35;;;;;;;5.30;3.20;;;;;;;;;;5070911;28;20024;-68
2023/07/22 07:29:01;;;;;;;5.10;3.40;;;;;;;;;;5071743;28;20028;-68
2023/07/22 07:31:27;;;;;;;4.97;3.70;;;;;;;;;;5069952;28;20024;-67
2023/07/22 07:33:53;;;;;;;5.07;3.00;;;;;;;;;;5068023;28;20094;-68
2023/07/22 07:36:19;;;;;;;4.20;3.15;;;;;;;;;;5074360;28;20444;-68
2023/07/22 07:38:46;;;;;;;4.53;3.00;;;;;;;;;;5071462;28;20044;-68
2023/07/22 07:41:12;;;;;;;4.90;3.00;;;;;;;;;;5071625;28;20056;-68
2023/07/22 07:43:39;;;;;;;4.28;2.97;;;;;;;;;;5077112;28;20073;-68
2023/07/22 07:46:17;;;;;;;4.35;2.90;;;;;;;;;;5061276;28;20115;-74
2023/07/22 07:48:48;;;;;;;5.25;3.03;;;;;;;;;;5062867;28;20101;-73
2023/07/22 07:51:14;;;;;;;4.13;2.70;;;;;;;;;;5060418;28;20502;-74
2023/07/22 07:53:41;;;;;;;3.10;2.30;;;;;;;;;;5071614;28;20114;-73
2023/07/22 07:56:08;;;;;;;7.35;2.70;;;;;;;;;;5060317;28;20108;-73
2023/07/22 07:58:34;;;;;;;3.75;2.60;;;;;;;;;;5060065;28;20032;-74
2023/07/22 08:01:00;;;;;;;3.58;2.50;;;;;;;;;;5062056;28;20033;-73
2023/07/22 08:03:26;;;;;;;3.70;2.20;;;;;;;;;;5071472;28;20036;-73
2023/07/22 08:05:52;;;;;;;3.10;2.42;;;;;;;;;;5056999;28;20039;-73
2023/07/22 08:08:18;;;;;;;2.83;2.20;;;;;;;;;;5069110;28;20027;-73
2023/07/22 08:10:45;;;;;;;4.25;2.65;;;;;;;;;;5062038;28;20062;-72
2023/07/22 08:13:11;;;;;;;3.53;2.22;;;;;;;;;;5061964;28;20032;-73
2023/07/22 08:15:37;;;;;;;4.22;2.60;;;;;;;;;;5055603;28;20031;-73
2023/07/22 08:18:03;;;;;;;2.40;2.13;;;;;;;;;;5058453;28;20031;-74
2023/07/22 08:20:30;;;;;;;3.30;2.42;;;;;;;;;;5060248;28;20029;-73
2023/07/22 08:22:56;;;;;;;3.13;2.40;;;;;;;;;;5058102;28;20430;-74
2023/07/22 08:25:22;;;;;;;4.28;2.63;;;;;;;;;;5060917;28;20077;-73
2023/07/22 08:27:49;;;;;;;3.38;2.40;;;;;;;;;;5061223;28;20033;-73
2023/07/22 08:30:15;;;;;;;2.60;2.30;;;;;;;;;;5060330;28;20051;-73
2023/07/22 08:32:41;;;;;;;2.75;2.42;;;;;;;;;;5054058;28;20029;-73
2023/07/22 08:35:07;;;;;;;2.85;2.22;;;;;;;;;;5059813;28;20090;-73
2023/07/22 08:37:33;;;;;;;4.05;2.40;;;;;;;;;;5058115;28;20024;-73
2023/07/22 08:39:59;;;;;;;2.67;2.00;;;;;;;;;;5077443;28;20034;-73
2023/07/22 08:42:27;;;;;;;2.95;2.28;;;;;;;;;;5058576;28;20044;-72
2023/07/22 08:44:57;;;;;;;3.53;2.22;;;;;;;;;;5058650;28;20028;-73
2023/07/22 08:47:25;;;;;;;3.03;2.60;;;;;;;;;;5056493;28;20112;-73
2023/07/22 08:49:52;;;;;;;3.20;2.20;;;;;;;;;;5053003;28;20032;-73
2023/07/22 08:52:19;;;;;;;3.65;2.20;;;;;;;;;;5059655;28;20469;-73
2023/07/22 08:54:45;;;;;;;2.38;2.03;;;;;;;;;;5050372;28;20021;-73
2023/07/22 08:57:12;;;;;;;3.20;2.40;;;;;;;;;;5056520;28;20040;-73
2023/07/22 08:59:38;;;;;;;2.00;1.80;;;;;;;;;;5058284;28;20024;-73
2023/07/22 09:02:05;;;;;;;2.38;2.10;;;;;;;;;;5062802;28;20064;-73
2023/07/22 09:04:31;;;;;;;2.53;1.95;;;;;;;;;;5062764;28;20025;-73
2023/07/22 09:06:57;;;;;;;3.45;2.10;;;;;;;;;;5071391;28;20388;-72
2023/07/22 09:09:24;;;;;;;2.50;2.08;;;;;;;;;;5062197;28;20047;-72
2023/07/22 09:11:52;;;;;;;2.88;2.10;;;;;;;;;;5053801;28;20086;-73
2023/07/22 09:14:19;;;;;;;3.45;2.40;;;;;;;;;;5055549;28;20466;-72
2023/07/22 09:16:46;;;;;;;3.85;2.20;;;;;;;;;;5059810;28;20048;-73
2023/07/22 09:19:12;;;;;;;2.75;1.95;;;;;;;;;;5057165;28;20106;-73
2023/07/22 09:21:38;;;;;;;2.35;2.08;;;;;;;;;;5056807;28;20021;-72
2023/07/22 09:24:23;;;;;;;2.83;2.40;;;;;;;;;;5063986;28;20028;-73
2023/07/22 09:26:49;;;;;;;4.05;2.40;;;;;;;;;;5056795;28;20049;-73
2023/07/22 09:29:16;;;;;;;3.40;2.40;;;;;;;;;;5064271;28;20107;-72
2023/07/22 09:31:52;;;;;;;3.67;2.22;;;;;;;;;;5061844;28;20043;-73
2023/07/22 09:34:18;;;;;;;3.03;2.33;;;;;;;;;;5058035;28;20123;-72
2023/07/22 09:36:52;;;;;;;3.38;2.15;;;;;;;;;;5065961;28;20075;-72
2023/07/22 09:39:18;;;;;;;3.13;2.20;;;;;;;;;;5053529;28;20032;-72
2023/07/22 09:41:45;;;;;;;2.72;2.28;;;;;;;;;;5062520;28;20024;-73
2023/07/22 09:44:12;;;;;;;2.70;2.13;;;;;;;;;;5057307;28;20040;-73
2023/07/22 09:46:38;;;;;;;2.50;2.20;;;;;;;;;;5064604;28;20032;-73
2023/07/22 09:49:05;;;;;;;2.75;1.92;;;;;;;;;;5054616;28;20035;-73
2023/07/22 09:51:35;;;;;;;2.83;1.90;;;;;;;;;;5057922;28;20037;-72
2023/07/22 09:54:02;;;;;;;2.25;1.90;;;;;;;;;;5060151;28;20028;-73
2023/07/22 09:56:28;;;;;;;2.80;2.40;;;;;;;;;;5057491;28;20020;-72
2023/07/22 09:58:55;;;;;;;2.53;2.30;;;;;;;;;;5058610;28;20025;-72
2023/07/22 10:01:25;;;;;;;2.90;2.42;;;;;;;;;;5060112;28;20115;-72
2023/07/22 10:03:56;;;;;;;2.65;2.30;;;;;;;;;;5057758;28;20029;-73
2023/07/22 10:06:27;;;;;;;2.53;2.20;;;;;;;;;;5058082;28;20115;-73
2023/07/22 10:08:53;;;;;;;2.65;1.98;;;;;;;;;;5072247;28;20410;-72
2023/07/22 10:11:20;;;;;;;3.40;2.25;;;;;;;;;;5055536;28;20121;-72
2023/07/22 10:13:46;;;;;;;2.63;2.10;;;;;;;;;;5048502;28;20033;-75
2023/07/22 10:16:12;;;;;;;3.08;2.42;;;;;;;;;;5045584;28;20037;-75
2023/07/22 10:18:41;;;;;;;3.00;2.20;;;;;;;;;;5062556;28;20031;-74
2023/07/22 10:21:08;;;;;;;2.45;2.03;;;;;;;;;;5056826;28;20041;-74
2023/07/22 10:23:34;;;;;;;2.60;2.08;;;;;;;;;;5058382;28;20060;-72
2023/07/22 10:26:00;;;;;;;2.30;1.90;;;;;;;;;;5053182;28;20028;-73
2023/07/22 10:28:26;;;;;;;2.55;2.20;;;;;;;;;;5061022;28;20120;-73
2023/07/22 10:30:53;;;;;;;2.15;1.95;;;;;;;;;;5056692;28;20115;-75
2023/07/22 10:33:19;;;;;;;3.60;2.20;;;;;;;;;;5051393;28;20119;-74
2023/07/22 10:36:02;;;;;;;2.55;2.00;;;;;;;;;;5052618;28;20344;-74
2023/07/22 10:38:28;;;;;;;2.30;2.00;;;;;;;;;;5055016;28;20039;-74
2023/07/22 10:40:55;;;;;;;3.83;2.05;;;;;;;;;;5049248;28;20139;-75
2023/07/22 10:43:33;;;;;;;2.13;1.80;;;;;;;;;;5049590;28;20090;-74
2023/07/22 10:46:10;;;;;;;2.78;2.40;;;;;;;;;;5052826;28;20123;-74
2023/07/22 10:48:37;;;;;;;2.90;2.00;;;;;;;;;;5061759;28;20103;-74
2023/07/22 10:51:10;;;;;;;2.00;1.73;;;;;;;;;;5057954;28;20484;-75
2023/07/22 10:53:44;;;;;;;2.70;1.98;;;;;;;;;;5064149;28;20353;-74
2023/07/22 10:56:14;;;;;;;2.55;2.15;;;;;;;;;;5052885;28;20459;-75
2023/07/22 10:58:46;;;;;;;2.72;2.20;;;;;;;;;;5051080;28;20020;-74
2023/07/22 11:01:24;;;;;;;2.47;2.00;;;;;;;;;;5052035;28;20028;-74
2023/07/22 11:04:12;;;;;;;3.30;2.13;;;;;;;;;;5048752;28;20195;-75
2023/07/22 11:06:59;;;;;;;3.05;2.40;;;;;;;;;;5044255;28;20048;-74
2023/07/22 11:09:33;;;;;;;3.92;2.30;;;;;;;;;;5045437;28;20058;-74
2023/07/22 11:12:17;;;;;;;3.40;2.65;;;;;;;;;;5058579;28;20051;-74
2023/07/22 11:14:47;;;;;;;2.85;2.53;;;;;;;;;;5055801;28;20478;-75
2023/07/22 11:17:14;;;;;;;3.00;2.40;;;;;;;;;;5061808;28;20166;-75
2023/07/22 11:19:40;;;;;;;2.53;2.33;;;;;;;;;;5056162;28;20078;-76
2023/07/22 11:22:06;;;;;;;6.55;3.47;;;;;;;;;;5076404;28;20020;-75
2023/07/22 11:24:35;;;;;;;3.58;2.63;;;;;;;;;;5064798;28;20063;-75
2023/07/22 11:27:03;;;;;;;2.70;2.40;;;;;;;;;;5061464;28;20029;-75
2023/07/22 11:29:29;;;;;;;5.72;2.35;;;;;;;;;;5048795;28;20033;-75
2023/07/22 11:31:55;;;;;;;3.05;2.40;;;;;;;;;;5061611;28;20487;-75
2023/07/22 11:34:23;;;;;;;3.45;2.20;;;;;;;;;;5062627;28;20121;-75
2023/07/22 11:36:50;;;;;;;2.92;2.45;;;;;;;;;;5057704;28;20472;-75
2023/07/22 11:39:17;;;;;;;3.03;2.20;;;;;;;;;;5064039;28;20044;-75
2023/07/22 11:41:44;;;;;;;3.28;2.40;;;;;;;;;;5062733;28;20036;-74
2023/07/22 11:44:13;;;;;;;4.38;2.58;;;;;;;;;;5061438;28;20029;-74
2023/07/22 11:46:58;;;;;;;3.08;2.33;;;;;;;;;;5048234;28;20032;-75
2023/07/22 11:49:29;;;;;;;2.85;2.38;;;;;;;;;;5061540;28;20111;-74
2023/07/22 11:51:56;;;;;;;3.15;2.47;;;;;;;;;;5051012;28;20413;-73
2023/07/22 11:54:22;;;;;;;2.92;2.40;;;;;;;;;;5046574;28;20135;-74
2023/07/22 11:56:49;;;;;;;3.22;2.60;;;;;;;;;;5044469;28;20559;-74
2023/07/22 11:59:15;;;;;;;2.95;2.50;;;;;;;;;;5061130;28;20140;-74
2023/07/22 12:01:45;;;;;;;4.15;2.40;;;;;;;;;;5056879;28;20527;-75
2023/07/22 12:04:12;;;;;;;3.38;2.55;;;;;;;;;;5045499;28;20105;-74
2023/07/22 12:06:39;;;;;;;3.60;2.38;;;;;;;;;;5060951;28;20119;-74
2023/07/22 12:09:05;;;;;;;3.42;2.40;;;;;;;;;;5057537;28;20860;-75
2023/07/22 12:11:33;;;;;;;2.40;1.95;;;;;;;;;;5046886;28;20039;-74
2023/07/22 12:14:08;;;;;;;3.05;2.70;;;;;;;;;;5065359;28;20396;-74
2023/07/22 12:16:36;;;;;;;2.90;2.25;;;;;;;;;;5060944;28;20067;-74
2023/07/22 12:19:02;;;;;;;2.58;2.38;;;;;;;;;;5063391;28;20016;-74
2023/07/22 12:21:28;;;;;;;3.00;2.58;;;;;;;;;;5054386;28;20036;-74
2023/07/22 12:23:54;;;;;;;2.40;2.20;;;;;;;;;;5058524;28;20032;-74
2023/07/22 12:26:21;;;;;;;2.55;2.10;;;;;;;;;;5065915;28;20029;-74
2023/07/22 12:28:47;;;;;;;2.47;2.28;;;;;;;;;;5060150;28;20401;-74
2023/07/22 12:31:13;;;;;;;2.63;2.35;;;;;;;;;;5053808;28;20028;-73
2023/07/22 12:33:39;;;;;;;3.50;2.20;;;;;;;;;;5060607;28;20040;-74
2023/07/22 12:36:06;;;;;;;3.65;2.33;;;;;;;;;;5056142;28;20035;-74
2023/07/22 12:38:32;;;;;;;3.22;2.10;;;;;;;;;;5058648;28;20078;-74
2023/07/22 12:40:58;;;;;;;2.50;2.10;;;;;;;;;;5064763;28;20094;-74
2023/07/22 12:43:24;;;;;;;3.33;2.15;;;;;;;;;;5048551;28;20074;-75
2023/07/22 12:45:51;;;;;;;2.78;2.25;;;;;;;;;;5064014;28;20450;-74
2023/07/22 12:48:17;;;;;;;2.20;2.00;;;;;;;;;;5069343;28;20025;-74
2023/07/22 12:50:49;;;;;;;2.50;2.30;;;;;;;;;;5054763;28;20028;-74
2023/07/22 12:53:15;;;;;;;2.90;2.60;;;;;;;;;;5054870;28;20668;-75
2023/07/22 12:55:41;;;;;;;2.08;1.88;;;;;;;;;;5062733;28;20403;-74
2023/07/22 12:58:07;;;;;;;3.63;2.33;;;;;;;;;;5055534;28;20080;-74
2023/07/22 13:00:34;;;;;;;3.22;2.40;;;;;;;;;;5070191;28;20224;-75
2023/07/22 13:03:00;;;;;;;3.30;2.40;;;;;;;;;;5061363;28;20020;-75
2023/07/22 13:05:26;;;;;;;3.70;2.13;;;;;;;;;;5064030;28;20471;-75
2023/07/22 13:07:53;;;;;;;3.40;2.47;;;;;;;;;;5057527;28;20066;-76
2023/07/22 13:10:20;;;;;;;3.63;2.50;;;;;;;;;;5047248;28;20028;-76
2023/07/22 13:12:46;;;;;;;3.28;2.55;;;;;;;;;;5056396;28;20055;-75
2023/07/22 13:15:12;;;;;;;3.20;2.38;;;;;;;;;;5061604;28;20032;-76
2023/07/22 13:17:38;;;;;;;2.60;2.40;;;;;;;;;;5052328;28;20032;-75
2023/07/22 13:20:08;;;;;;;2.70;2.40;;;;;;;;;;5055547;28;20078;-75
2023/07/22 13:22:36;;;;;;;3.10;2.15;;;;;;;;;;5046092;28;20096;-75
2023/07/22 13:25:02;;;;;;;2.97;2.15;;;;;;;;;;5050116;28;20035;-75
2023/07/22 13:27:29;;;;;;;2.00;1.80;;;;;;;;;;5054005;28;20055;-76
2023/07/22 13:29:55;;;;;;;2.13;1.92;;;;;;;;;;5049682;28;20036;-76
2023/07/22 13:32:21;;;;;;;2.70;2.25;;;;;;;;;;5059714;28;20503;-75
2023/07/22 13:34:47;;;;;;;3.00;2.50;;;;;;;;;;5047682;28;20528;-76
2023/07/22 13:37:14;;;;;;;2.97;2.35;;;;;;;;;;5060101;28;20395;-75
2023/07/22 13:39:40;;;;;;;2.50;2.28;;;;;;;;;;5050154;28;20093;-76
2023/07/22 13:42:06;;;;;;;2.67;2.47;;;;;;;;;;5055706;28;20357;-76
2023/07/22 13:44:32;;;;;;;3.55;2.10;;;;;;;;;;5072535;28;20036;-76
2023/07/22 13:46:58;;;;;;;2.60;2.20;;;;;;;;;;5057312;28;20550;-76
2023/07/22 13:49:24;;;;;;;3.65;2.60;;;;;;;;;;5051134;28;20372;-77
2023/07/22 13:51:51;;;;;;;3.08;2.30;;;;;;;;;;5052139;28;20024;-76
2023/07/22 13:54:17;;;;;;;3.03;2.65;;;;;;;;;;5061924;28;20339;-77
2023/07/22 13:56:43;;;;;;;3.10;2.70;;;;;;;;;;5061251;28;20116;-75
2023/07/22 13:59:09;;;;;;;2.50;2.15;;;;;;;;;;5058746;28;20051;-77
2023/07/22 14:01:36;;;;;;;3.28;2.40;;;;;;;;;;5059842;28;20487;-76
2023/07/22 14:04:02;;;;;;;3.20;2.45;;;;;;;;;;5058825;28;20438;-75
2023/07/22 14:06:28;;;;;;;2.80;2.30;;;;;;;;;;5057501;28;20028;-74
2023/07/22 14:08:54;;;;;;;2.60;2.30;;;;;;;;;;5062611;28;20039;-75
2023/07/22 14:11:20;;;;;;;3.92;2.60;;;;;;;;;;5062975;28;20024;-74
2023/07/22 14:13:46;;;;;;;3.08;2.40;;;;;;;;;;5067880;28;20246;-75
2023/07/22 14:16:12;;;;;;;2.80;2.30;;;;;;;;;;5058780;28;20499;-75
2023/07/22 14:18:38;;;;;;;3.47;2.65;;;;;;;;;;5054871;28;20025;-75
2023/07/22 14:21:11;;;;;;;3.58;2.60;;;;;;;;;;5060137;28;20025;-75
2023/07/22 14:23:37;;;;;;;3.78;2.60;;;;;;;;;;5055620;28;20039;-75
2023/07/22 14:26:03;;;;;;;3.50;2.63;;;;;;;;;;5051211;28;20519;-75
2023/07/22 14:28:29;;;;;;;4.20;2.53;;;;;;;;;;5066284;28;20051;-75
2023/07/22 14:30:55;;;;;;;4.68;2.50;;;;;;;;;;5070440;28;20653;-75
2023/07/22 14:33:21;;;;;;;3.17;2.88;;;;;;;;;;5062037;28;20056;-75
2023/07/22 14:35:47;;;;;;;2.92;2.60;;;;;;;;;;5064675;28;20027;-75
2023/07/22 14:38:14;;;;;;;3.00;2.42;;;;;;;;;;5056537;28;20166;-76
2023/07/22 14:40:41;;;;;;;3.03;2.60;;;;;;;;;;5063785;28;20080;-75